Sandra Hugh — WDD9019 — position and weather

sailwx.info

Track history (hours):
 
Tides and Currents Weather Stations Pressure Air Temp Water Temp Dewpoint Dewpoint Depression Visibility Wind Speed Wind Dir Waves Ship Positions

Sandra Hugh

Owner: AMNAV Maritime Corporation, Oakland, CA. More information available from US FCC via Universal Licensing System and Coast Guard Vessel Documentation Center.

Last reported at 2017-Jul-21 18:30 UTC. Time now 2017-Jul-21 18:55 UTC.
Position N 37°49' W 122°19'.

Length 24 m; draft 4.9 m.

Type: Tug. MMSI: 367305920.

Date/timePositionNaut miles runAvg speedWind from/ knotsBaromVisibWave heightAir tempDewpointWater temp
2017-Jul-21 18:30N 37°49' W 122°19'0 0.0
2017-Jul-21 18:00N 37°49' W 122°19'0 0.0
2017-Jul-21 17:30N 37°49' W 122°19'0 0.0
2017-Jul-21 17:01N 37°49' W 122°19'0 0.0
2017-Jul-21 16:30N 37°49' W 122°19'0 0.0
2017-Jul-21 16:00N 37°49' W 122°19'0 0.0
2017-Jul-21 15:30N 37°49' W 122°19'0 0.0
2017-Jul-21 15:00N 37°49' W 122°19'0 0.0
2017-Jul-21 14:30N 37°49' W 122°19'0 0.0
2017-Jul-21 14:00N 37°49' W 122°19'0 0.0
2017-Jul-21 13:30N 37°49' W 122°19'0 0.0
2017-Jul-21 13:00N 37°49' W 122°19'0 0.0
2017-Jul-21 12:30N 37°49' W 122°19'0 0.0
2017-Jul-21 12:00N 37°49' W 122°19'0 0.0
2017-Jul-21 11:30N 37°49' W 122°19'0 0.0
2017-Jul-21 11:00N 37°49' W 122°19'0 0.0
2017-Jul-21 10:30N 37°49' W 122°19'0 0.0
2017-Jul-21 10:00N 37°49' W 122°19'0 0.0
2017-Jul-21 09:30N 37°49' W 122°19'0 0.0
2017-Jul-21 09:00N 37°49' W 122°19'0 0.0
2017-Jul-21 08:30N 37°49' W 122°19'0 0.0
2017-Jul-21 08:00N 37°49' W 122°19'0 0.0
2017-Jul-21 07:30N 37°49' W 122°19'0 0.0
2017-Jul-21 07:00N 37°49' W 122°19'0 0.0
2017-Jul-21 06:30N 37°49' W 122°19'0 0.0
2017-Jul-21 06:00N 37°49' W 122°19'0 0.0
2017-Jul-21 05:31N 37°49' W 122°19'2 3.2
2017-Jul-21 05:00N 37°48' W 122°19'2 3.0
2017-Jul-21 04:30N 37°48' W 122°21'1 2.3
2017-Jul-21 04:00N 37°49' W 122°20'1 2.0
2017-Jul-21 03:31N 37°49' W 122°19'611.4
2017-Jul-21 03:00N 37°49' W 122°26'4 7.3
2017-Jul-21 02:30N 37°49' W 122°31'0 0.4
2017-Jul-21 02:01N 37°49' W 122°31'2 4.7
2017-Jul-21 01:30N 37°49' W 122°28'4 7.1
2017-Jul-21 01:01N 37°52' W 122°25'3 5.6
2017-Jul-21 00:30N 37°55' W 122°26'0 0.9
2017-Jul-21 00:00N 37°55' W 122°25'3 6.2
2017-Jul-20 23:30N 37°54' W 122°22'0 0.3
2017-Jul-20 23:01N 37°54' W 122°22'1 2.4
2017-Jul-20 22:31N 37°55' W 122°23'0 0.0
2017-Jul-20 21:47N 37°55' W 122°23'0 0.0
2017-Jul-20 21:30N 37°55' W 122°23'0 0.0
2017-Jul-20 21:01N 37°55' W 122°23'0 0.0
2017-Jul-20 20:30N 37°55' W 122°23'0 0.0
2017-Jul-20 20:01N 37°55' W 122°23'0 0.0
2017-Jul-20 19:29N 37°55' W 122°23'0 0.0
2017-Jul-20 19:01N 37°55' W 122°23'0 0.0
2017-Jul-20 18:30N 37°55' W 122°23'0 0.0
2017-Jul-20 18:01N 37°55' W 122°23'1 2.4
2017-Jul-20 17:30N 37°55' W 122°22'0 0.4
2017-Jul-20 17:01N 37°55' W 122°22'1 2.1
2017-Jul-20 16:30N 37°54' W 122°23'3 5.4
2017-Jul-20 16:00N 37°56' W 122°26'2 5.0
2017-Jul-20 15:30N 37°54' W 122°25'2 5.0
2017-Jul-20 15:01N 37°51' W 122°23'3 2.5
2017-Jul-20 14:00N 37°49' W 122°22'3 5.7
2017-Jul-20 13:31N 37°48' W 122°19'1 2.0
2017-Jul-20 13:00N 37°48' W 122°17'1 2.4
2017-Jul-20 12:30N 37°48' W 122°19'1 3.0
2017-Jul-20 12:01N 37°48' W 122°21'0 1.0
2017-Jul-20 11:30N 37°49' W 122°20'0 0.0
2017-Jul-20 11:00N 37°49' W 122°20'0 0.0
2017-Jul-20 10:30N 37°49' W 122°20'0 0.0
2017-Jul-20 10:00N 37°49' W 122°20'0 0.0
2017-Jul-20 09:31N 37°49' W 122°20'0 0.0
2017-Jul-20 09:00N 37°49' W 122°20'0 0.0
2017-Jul-20 08:30N 37°49' W 122°20'0 0.0
2017-Jul-20 08:01N 37°49' W 122°20'0 0.0
2017-Jul-20 07:30N 37°49' W 122°20'0 0.0
2017-Jul-20 07:00N 37°49' W 122°20'0 0.0
2017-Jul-20 06:31N 37°49' W 122°20'0 0.0
2017-Jul-20 06:00N 37°49' W 122°20'0 0.0
2017-Jul-20 05:30N 37°49' W 122°20'0 0.0
2017-Jul-20 05:00N 37°49' W 122°20'0 0.0
2017-Jul-20 04:31N 37°49' W 122°20'0 0.0
2017-Jul-20 04:00N 37°49' W 122°20'0 0.0
2017-Jul-20 03:31N 37°49' W 122°20'0 0.0
2017-Jul-20 03:01N 37°49' W 122°20'0 0.0
2017-Jul-20 02:30N 37°49' W 122°20'0 0.0
2017-Jul-20 02:01N 37°49' W 122°20'2 3.3
2017-Jul-20 01:31N 37°48' W 122°18'0 0.1
2017-Jul-20 01:01N 37°48' W 122°18'0 0.1
2017-Jul-20 00:30N 37°48' W 122°18'0 0.0
2017-Jul-20 00:01N 37°48' W 122°18'2 3.3
2017-Jul-19 23:31N 37°49' W 122°20'0 0.7
2017-Jul-19 23:00N 37°49' W 122°19'1 1.9
2017-Jul-19 22:30N 37°48' W 122°21'1 2.3
2017-Jul-19 22:01N 37°48' W 122°19'0 1.0
2017-Jul-19 21:31N 37°48' W 122°20'2 3.3
2017-Jul-19 21:01N 37°48' W 122°22'3 5.5
2017-Jul-19 20:30N 37°49' W 122°19'0 0.0
2017-Jul-19 20:00N 37°49' W 122°19'0 0.0
2017-Jul-19 19:30N 37°49' W 122°19'0 0.0
2017-Jul-19 19:01N 37°49' W 122°19'0 0.0
2017-Jul-19 18:30N 37°49' W 122°19'0 0.0
2017-Jul-19 18:00N 37°49' W 122°19'0 0.0
2017-Jul-19 17:30N 37°49' W 122°19'0 0.0
2017-Jul-19 17:01N 37°49' W 122°19'0 0.0
2017-Jul-19 16:30N 37°49' W 122°19'0 0.0
2017-Jul-19 16:01N 37°49' W 122°19'0 0.0
2017-Jul-19 15:31N 37°49' W 122°19'0 0.0
2017-Jul-19 15:00N 37°49' W 122°19'0 0.0
2017-Jul-19 14:31N 37°49' W 122°19'0 0.0
2017-Jul-19 14:01N 37°49' W 122°19'1 1.0
2017-Jul-19 13:30N 37°49' W 122°19'0 0.9
2017-Jul-19 13:00N 37°49' W 122°20'2 3.6
2017-Jul-19 12:30N 37°48' W 122°22'1 2.1
2017-Jul-19 12:00N 37°48' W 122°21'0 0.0
2017-Jul-19 11:31N 37°48' W 122°21'0 0.0
2017-Jul-19 11:00N 37°48' W 122°21'0 0.0
2017-Jul-19 10:31N 37°48' W 122°21'0 0.0
2017-Jul-19 10:01N 37°48' W 122°21'0 0.0
2017-Jul-19 09:30N 37°48' W 122°21'0 0.0
2017-Jul-19 09:01N 37°48' W 122°21'0 0.0
2017-Jul-19 08:30N 37°48' W 122°21'0 0.0
2017-Jul-19 08:00N 37°48' W 122°21'0 0.0
2017-Jul-19 07:31N 37°48' W 122°21'1 2.9
2017-Jul-19 07:01N 37°48' W 122°19'1 1.6
2017-Jul-19 06:31N 37°48' W 122°18'0 0.1
2017-Jul-19 06:01N 37°48' W 122°18'3 6.5
2017-Jul-19 05:31N 37°48' W 122°22'1 2.3
2017-Jul-19 05:01N 37°48' W 122°20'2 3.3
2017-Jul-19 04:30N 37°49' W 122°19'0 0.0
2017-Jul-19 04:00N 37°49' W 122°19'0 0.0
2017-Jul-19 03:30N 37°49' W 122°19'0 0.0
2017-Jul-19 03:00N 37°49' W 122°19'0 0.0
2017-Jul-19 02:30N 37°49' W 122°19'0 0.0
2017-Jul-19 02:00N 37°49' W 122°19'0 0.0
2017-Jul-19 01:30N 37°49' W 122°19'0 0.0
2017-Jul-19 01:00N 37°49' W 122°19'0 0.0
2017-Jul-19 00:30N 37°49' W 122°19'0 0.0
2017-Jul-19 00:01N 37°49' W 122°19'0 0.0
2017-Jul-18 23:30N 37°49' W 122°19'0 0.0
2017-Jul-18 23:01N 37°49' W 122°19'0 0.0
2017-Jul-18 22:30N 37°49' W 122°19'0 0.0
2017-Jul-18 22:01N 37°49' W 122°19'0 0.0
2017-Jul-18 21:31N 37°49' W 122°19'0 0.1
2017-Jul-18 21:00N 37°49' W 122°19'0 0.1
2017-Jul-18 20:31N 37°49' W 122°19'0 0.0
2017-Jul-18 20:01N 37°49' W 122°19'0 0.0
2017-Jul-18 19:30N 37°49' W 122°19'0 0.0
2017-Jul-18 19:01N 37°49' W 122°19'0 0.0
2017-Jul-18 18:31N 37°49' W 122°19'0 0.0
2017-Jul-18 18:01N 37°49' W 122°19'0 0.0
2017-Jul-18 17:30N 37°49' W 122°19'1 1.6
2017-Jul-18 17:01N 37°49' W 122°19'1 2.4
2017-Jul-18 16:31N 37°48' W 122°21'1 1.6
2017-Jul-18 16:00N 37°48' W 122°22'3 5.4
2017-Jul-18 15:31N 37°48' W 122°18'1 1.2
2017-Jul-18 15:00N 37°48' W 122°18'2 2.5
2017-Jul-18 14:01N 37°48' W 122°21'1 1.3
2017-Jul-18 13:30N 37°49' W 122°20'2 3.4
2017-Jul-18 13:01N 37°48' W 122°22'1 2.0
2017-Jul-18 12:30N 37°48' W 122°21'0 0.0
2017-Jul-18 12:01N 37°48' W 122°21'0 0.0
2017-Jul-18 11:30N 37°48' W 122°21'0 0.0
2017-Jul-18 11:01N 37°48' W 122°21'0 0.0
2017-Jul-18 10:30N 37°48' W 122°21'0 0.0
2017-Jul-18 10:00N 37°48' W 122°21'0 0.7
2017-Jul-18 09:31N 37°48' W 122°20'2 3.6
2017-Jul-18 09:01N 37°48' W 122°18'0 0.3
2017-Jul-18 08:31N 37°48' W 122°18'0 0.0
2017-Jul-18 08:00N 37°48' W 122°18'0 0.0
2017-Jul-18 07:30N 37°48' W 122°18'2 3.7
2017-Jul-18 07:00N 37°49' W 122°19'0 0.0
2017-Jul-18 06:30N 37°49' W 122°19'0 0.0
2017-Jul-18 06:00N 37°49' W 122°19'0 0.0
2017-Jul-18 05:30N 37°49' W 122°19'0 0.0
2017-Jul-18 05:00N 37°49' W 122°19'0 0.0
2017-Jul-18 04:30N 37°49' W 122°19'0 0.0
2017-Jul-18 04:00N 37°49' W 122°19'0 0.0
2017-Jul-18 03:30N 37°49' W 122°19'0 0.0
2017-Jul-18 03:00N 37°49' W 122°19'0 0.0
2017-Jul-18 02:30N 37°49' W 122°19'0 0.0
2017-Jul-18 02:00N 37°49' W 122°19'0 0.0
2017-Jul-18 01:30N 37°49' W 122°19'0 0.0
2017-Jul-18 01:00N 37°49' W 122°19'2 3.2
2017-Jul-18 00:30N 37°48' W 122°19'0 0.2
2017-Jul-18 00:00N 37°48' W 122°19'0 0.3
2017-Jul-17 23:30N 37°48' W 122°20'1 1.8
2017-Jul-17 23:00N 37°48' W 122°20'0 0.1
2017-Jul-17 22:30N 37°48' W 122°21'2 3.4
2017-Jul-17 22:01N 37°49' W 122°19'0 0.0
2017-Jul-17 21:30N 37°49' W 122°19'0 0.0
2017-Jul-17 21:00N 37°49' W 122°19'0 0.0
2017-Jul-17 20:30N 37°49' W 122°19'0 0.0
2017-Jul-17 20:00N 37°49' W 122°19'0 0.0
2017-Jul-17 19:30N 37°49' W 122°19'1 1.1
2017-Jul-17 19:00N 37°49' W 122°19'2 3.4
2017-Jul-17 18:30N 37°48' W 122°18'2 4.0
2017-Jul-17 18:00N 37°47' W 122°15'1 1.1
2017-Jul-17 17:31N 37°47' W 122°15'0 0.2
2017-Jul-17 17:00N 37°47' W 122°15'0 0.2
2017-Jul-17 16:30N 37°47' W 122°15'2 3.7
2017-Jul-17 16:00N 37°48' W 122°17'0 0.0
2017-Jul-17 15:30N 37°48' W 122°17'0 0.0
2017-Jul-17 15:00N 37°48' W 122°17'3 5.2
2017-Jul-17 14:30N 37°48' W 122°20'2 3.9
2017-Jul-17 14:00N 37°47' W 122°22'1 2.4
2017-Jul-17 13:30N 37°46' W 122°23'0 0.1
2017-Jul-17 13:00N 37°46' W 122°23'0 0.3
2017-Jul-17 12:30N 37°46' W 122°23'0 1.0
2017-Jul-17 12:01N 37°46' W 122°22'1 2.3
2017-Jul-17 11:30N 37°46' W 122°21'3 5.2
2017-Jul-17 11:00N 37°49' W 122°20'1 2.9
2017-Jul-17 10:30N 37°49' W 122°19'0 0.0
2017-Jul-17 10:00N 37°49' W 122°19'0 0.0
2017-Jul-17 09:30N 37°49' W 122°19'0 0.0
2017-Jul-17 09:00N 37°49' W 122°19'0 0.0
2017-Jul-17 08:30N 37°49' W 122°19'0 0.0
2017-Jul-17 08:00N 37°49' W 122°19'0 0.0
2017-Jul-17 07:30N 37°49' W 122°19'0 0.0
2017-Jul-17 07:00N 37°49' W 122°19'0 0.0
2017-Jul-17 06:30N 37°49' W 122°19'0 0.0
2017-Jul-17 06:00N 37°49' W 122°19'0 0.0
2017-Jul-17 05:30N 37°49' W 122°19'0 0.0
2017-Jul-17 05:00N 37°49' W 122°19'0 0.0
2017-Jul-17 04:30N 37°49' W 122°19'0 0.0
2017-Jul-17 04:00N 37°49' W 122°19'0 0.0
2017-Jul-17 03:30N 37°49' W 122°19'0 0.0
2017-Jul-17 03:00N 37°49' W 122°19'0 0.0
2017-Jul-17 02:30N 37°49' W 122°19'0 0.0
2017-Jul-17 02:00N 37°49' W 122°19'0 0.0
2017-Jul-17 01:30N 37°49' W 122°19'0 0.0
2017-Jul-17 01:00N 37°49' W 122°19'0 0.0
2017-Jul-17 00:30N 37°49' W 122°19'0 0.0
2017-Jul-17 00:00N 37°49' W 122°19'0 0.0
2017-Jul-16 23:30N 37°49' W 122°19'0 0.0
2017-Jul-16 23:00N 37°49' W 122°19'0 0.0
2017-Jul-16 22:30N 37°49' W 122°19'0 0.0
2017-Jul-16 22:00N 37°49' W 122°19'0 0.0
2017-Jul-16 21:30N 37°49' W 122°19'0 0.0
2017-Jul-16 21:01N 37°49' W 122°19'0 0.0
2017-Jul-16 20:30N 37°49' W 122°19'0 0.0
2017-Jul-16 20:00N 37°49' W 122°19'0 0.0
2017-Jul-16 19:30N 37°49' W 122°19'0 0.0
2017-Jul-16 19:00N 37°49' W 122°19'0 0.0
2017-Jul-16 18:30N 37°49' W 122°19'0 0.0
2017-Jul-16 18:00N 37°49' W 122°19'0 0.0
2017-Jul-16 17:30N 37°49' W 122°19'0 0.0
2017-Jul-16 17:00N 37°49' W 122°19'0 0.0
2017-Jul-16 16:30N 37°49' W 122°19'0 0.0
2017-Jul-16 16:00N 37°49' W 122°19'0 0.0
2017-Jul-16 15:30N 37°49' W 122°19'0 0.0
2017-Jul-16 15:00N 37°49' W 122°19'1 1.4
2017-Jul-16 14:30N 37°49' W 122°19'0 0.6
2017-Jul-16 14:00N 37°49' W 122°20'1 1.5
2017-Jul-16 13:31N 37°48' W 122°21'1 2.4
2017-Jul-16 13:01N 37°48' W 122°22'2 3.0
2017-Jul-16 12:30N 37°49' W 122°20'0 0.0
2017-Jul-16 12:00N 37°49' W 122°20'0 0.0
2017-Jul-16 11:30N 37°49' W 122°20'0 0.0
2017-Jul-16 11:00N 37°49' W 122°20'0 0.0
2017-Jul-16 10:30N 37°49' W 122°20'0 0.0
2017-Jul-16 10:00N 37°49' W 122°20'1 1.2
2017-Jul-16 09:30N 37°49' W 122°20'0 0.3
2017-Jul-16 09:00N 37°49' W 122°20'0 0.1
2017-Jul-16 08:30N 37°49' W 122°20'1 1.9
2017-Jul-16 08:00N 37°49' W 122°19'0 0.0
2017-Jul-16 07:30N 37°49' W 122°19'0 0.0
2017-Jul-16 07:00N 37°49' W 122°19'0 0.0
2017-Jul-16 06:30N 37°49' W 122°19'0 0.0
2017-Jul-16 06:00N 37°49' W 122°19'0 0.0
2017-Jul-16 05:30N 37°49' W 122°19'0 0.0
2017-Jul-16 05:00N 37°49' W 122°19'0 0.0
2017-Jul-16 04:30N 37°49' W 122°19'0 0.0
2017-Jul-16 04:00N 37°49' W 122°19'0 0.0
2017-Jul-16 03:30N 37°49' W 122°19'0 0.0
2017-Jul-16 03:00N 37°49' W 122°19'0 0.0
2017-Jul-16 02:30N 37°49' W 122°19'0 0.0
2017-Jul-16 02:00N 37°49' W 122°19'0 0.0
2017-Jul-16 01:30N 37°49' W 122°19'0 0.0
2017-Jul-16 01:00N 37°49' W 122°19'0 0.0
2017-Jul-16 00:30N 37°49' W 122°19'0 0.0
2017-Jul-16 00:00N 37°49' W 122°19'0 0.0
2017-Jul-15 23:30N 37°49' W 122°19'0 0.0
2017-Jul-15 23:00N 37°49' W 122°19'0 0.0
2017-Jul-15 22:30N 37°49' W 122°19'0 0.0
2017-Jul-15 22:00N 37°49' W 122°19'0 0.0
2017-Jul-15 21:30N 37°49' W 122°19'0 0.0
2017-Jul-15 21:00N 37°49' W 122°19'0 0.0
2017-Jul-15 20:30N 37°49' W 122°19'0 0.0
2017-Jul-15 20:00N 37°49' W 122°19'0 0.0
2017-Jul-15 19:30N 37°49' W 122°19'0 0.0
2017-Jul-15 19:00N 37°49' W 122°19'0 0.0
2017-Jul-15 18:30N 37°49' W 122°19'0 0.0
2017-Jul-15 18:00N 37°49' W 122°19'0 0.0
2017-Jul-15 17:30N 37°49' W 122°19'0 0.0
2017-Jul-15 17:00N 37°49' W 122°19'0 0.0
2017-Jul-15 16:30N 37°49' W 122°19'3 6.8
2017-Jul-15 16:01N 37°46' W 122°20'1 1.6
2017-Jul-15 15:30N 37°47' W 122°21'3 6.6
2017-Jul-15 15:00N 37°49' W 122°24'6 6.0
2017-Jul-15 13:59N 37°55' W 122°25'0 0.1
2017-Jul-15 13:29N 37°55' W 122°25'4 7.9
2017-Jul-15 13:00N 37°52' W 122°24'4 8.9
2017-Jul-15 12:30N 37°49' W 122°20'1 1.7
2017-Jul-15 12:00N 37°49' W 122°19'0 0.0
2017-Jul-15 11:30N 37°49' W 122°19'0 0.8
2017-Jul-15 11:00N 37°49' W 122°19'1 3.0
2017-Jul-15 10:31N 37°48' W 122°19'0 0.1
2017-Jul-15 10:01N 37°48' W 122°18'1 1.6
2017-Jul-15 09:30N 37°48' W 122°20'2 3.2
2017-Jul-15 09:01N 37°49' W 122°19'0 0.0
2017-Jul-15 08:31N 37°49' W 122°19'0 0.0
2017-Jul-15 08:00N 37°49' W 122°19'0 0.0
2017-Jul-15 07:30N 37°49' W 122°19'0 0.0
2017-Jul-15 07:00N 37°49' W 122°19'0 0.0
2017-Jul-15 06:31N 37°49' W 122°19'0 0.0
2017-Jul-15 06:00N 37°49' W 122°19'0 0.0
2017-Jul-15 05:30N 37°49' W 122°19'0 0.0
2017-Jul-15 05:00N 37°49' W 122°19'0 0.0
2017-Jul-15 04:31N 37°49' W 122°19'0 0.0
2017-Jul-15 04:01N 37°49' W 122°19'0 0.0
2017-Jul-15 03:31N 37°49' W 122°19'0 0.0
2017-Jul-15 03:00N 37°49' W 122°19'0 0.0
2017-Jul-15 02:31N 37°49' W 122°19'0 0.0
2017-Jul-15 02:00N 37°49' W 122°19'0 0.0
2017-Jul-15 01:31N 37°49' W 122°19'0 0.0
2017-Jul-15 01:00N 37°49' W 122°19'0 0.0
2017-Jul-15 00:30N 37°49' W 122°19'0 0.0
2017-Jul-15 00:00N 37°49' W 122°19'0 0.0
2017-Jul-14 23:30N 37°49' W 122°19'1 2.1
2017-Jul-14 23:00N 37°49' W 122°20'2 4.0
2017-Jul-14 22:30N 37°48' W 122°22'1 2.7
2017-Jul-14 22:00N 37°48' W 122°21'1 1.4
2017-Jul-14 21:31N 37°49' W 122°20'0 0.2
2017-Jul-14 21:00N 37°49' W 122°20'1 2.1
2017-Jul-14 20:30N 37°49' W 122°19'0 0.0
2017-Jul-14 20:00N 37°49' W 122°19'0 0.0
2017-Jul-14 19:30N 37°49' W 122°19'2 3.6
2017-Jul-14 19:01N 37°48' W 122°21'2 4.4
2017-Jul-14 18:30N 37°48' W 122°18'0 0.1
2017-Jul-14 18:01N 37°48' W 122°18'1 2.8
2017-Jul-14 17:31N 37°48' W 122°20'2 3.2
2017-Jul-14 17:01N 37°49' W 122°19'0 0.0
2017-Jul-14 16:31N 37°49' W 122°19'0 0.0
2017-Jul-14 16:01N 37°49' W 122°19'0 0.0
2017-Jul-14 15:31N 37°49' W 122°19'0 0.0
2017-Jul-14 15:00N 37°49' W 122°19'0 0.0
2017-Jul-14 14:30N 37°49' W 122°19'0 0.0
2017-Jul-14 14:00N 37°49' W 122°19'0 0.0
2017-Jul-14 13:31N 37°49' W 122°19'0 0.0
2017-Jul-14 13:00N 37°49' W 122°19'0 0.0
2017-Jul-14 12:30N 37°49' W 122°19'0 0.0
2017-Jul-14 12:00N 37°49' W 122°19'0 0.0
2017-Jul-14 11:30N 37°49' W 122°19'0 0.0
2017-Jul-14 11:00N 37°49' W 122°19'0 0.0
2017-Jul-14 10:30N 37°49' W 122°19'0 0.0
2017-Jul-14 10:00N 37°49' W 122°19'0 0.0
2017-Jul-14 09:31N 37°49' W 122°19'2 3.2
2017-Jul-14 09:00N 37°48' W 122°20'0 0.2
2017-Jul-14 08:30N 37°49' W 122°20'1 3.0
2017-Jul-14 08:01N 37°49' W 122°19'0 0.0
2017-Jul-14 07:30N 37°49' W 122°19'0 0.0
2017-Jul-14 07:00N 37°49' W 122°19'0 0.0
2017-Jul-14 06:31N 37°49' W 122°19'0 0.0
2017-Jul-14 06:00N 37°49' W 122°19'0 0.0
2017-Jul-14 05:30N 37°49' W 122°19'0 0.0
2017-Jul-14 05:00N 37°49' W 122°19'0 0.0
2017-Jul-14 04:30N 37°49' W 122°19'0 0.0
2017-Jul-14 04:00N 37°49' W 122°19'0 0.0
2017-Jul-14 03:30N 37°49' W 122°19'0 0.0
2017-Jul-14 03:00N 37°49' W 122°19'0 0.0
2017-Jul-14 02:31N 37°49' W 122°19'0 0.0
2017-Jul-14 02:00N 37°49' W 122°19'0 0.0
2017-Jul-14 01:30N 37°49' W 122°19'0 0.0
2017-Jul-14 01:00N 37°49' W 122°19'0 0.0
2017-Jul-14 00:30N 37°49' W 122°19'0 0.0
2017-Jul-14 00:00N 37°49' W 122°19'0 0.0
2017-Jul-13 23:31N 37°49' W 122°19'2 3.2
2017-Jul-13 23:01N 37°48' W 122°20'1 1.5
2017-Jul-13 22:30N 37°48' W 122°19'0 0.0
2017-Jul-13 22:00N 37°48' W 122°19'1 1.2
2017-Jul-13 21:30N 37°48' W 122°19'2 3.1
2017-Jul-13 21:00N 37°49' W 122°19'0 0.0
2017-Jul-13 20:31N 37°49' W 122°19'0 0.0
2017-Jul-13 20:00N 37°49' W 122°19'0 0.0
2017-Jul-13 19:30N 37°49' W 122°19'0 0.0
2017-Jul-13 19:00N 37°49' W 122°19'0 0.0
2017-Jul-13 18:30N 37°49' W 122°19'0 0.0
2017-Jul-13 18:00N 37°49' W 122°19'0 0.0
2017-Jul-13 17:30N 37°49' W 122°19'0 0.0
2017-Jul-13 17:01N 37°49' W 122°19'0 0.7
2017-Jul-13 16:30N 37°49' W 122°19'1 1.5
2017-Jul-13 16:01N 37°49' W 122°20'2 4.2
2017-Jul-13 15:30N 37°48' W 122°23'3 5.5
2017-Jul-13 15:00N 37°49' W 122°19'0 1.0
2017-Jul-13 14:31N 37°49' W 122°19'0 0.0
2017-Jul-13 14:01N 37°49' W 122°19'0 0.0
2017-Jul-13 13:30N 37°49' W 122°19'0 0.0
2017-Jul-13 13:00N 37°49' W 122°19'0 0.0
2017-Jul-13 12:30N 37°49' W 122°19'0 0.0
2017-Jul-13 12:01N 37°49' W 122°19'0 0.0
2017-Jul-13 11:30N 37°49' W 122°19'0 0.0
2017-Jul-13 11:00N 37°49' W 122°19'0 0.0
2017-Jul-13 10:30N 37°49' W 122°19'0 0.0
2017-Jul-13 10:01N 37°49' W 122°19'0 0.0
2017-Jul-13 09:31N 37°49' W 122°19'0 0.0
2017-Jul-13 09:00N 37°49' W 122°19'0 0.0
2017-Jul-13 08:31N 37°49' W 122°19'0 0.0
2017-Jul-13 08:00N 37°49' W 122°19'0 0.0
2017-Jul-13 07:30N 37°49' W 122°19'0 0.0
2017-Jul-13 07:00N 37°49' W 122°19'0 0.0
2017-Jul-13 06:31N 37°49' W 122°19'0 0.0
2017-Jul-13 06:01N 37°49' W 122°19'0 0.0
2017-Jul-13 05:31N 37°49' W 122°19'0 0.0
2017-Jul-13 05:00N 37°49' W 122°19'0 0.0
2017-Jul-13 04:30N 37°49' W 122°19'0 0.0
2017-Jul-13 04:00N 37°49' W 122°19'0 0.0
2017-Jul-13 03:30N 37°49' W 122°19'0 0.0
2017-Jul-13 03:00N 37°49' W 122°19'0 0.0
2017-Jul-13 02:31N 37°49' W 122°19'2 3.3
2017-Jul-13 02:01N 37°48' W 122°20'1 2.5
2017-Jul-13 01:30N 37°48' W 122°19'1 2.6
2017-Jul-13 01:01N 37°48' W 122°17'3 5.3
2017-Jul-13 00:31N 37°48' W 122°21'2 4.6
2017-Jul-13 00:00N 37°46' W 122°22'1 2.3
2017-Jul-12 23:31N 37°47' W 122°22'1 2.3
2017-Jul-12 23:00N 37°48' W 122°23'3 5.7
2017-Jul-12 22:30N 37°48' W 122°20'0 0.0
2017-Jul-12 22:00N 37°48' W 122°20'3 5.2
2017-Jul-12 21:31N 37°49' W 122°23'3 5.7
2017-Jul-12 21:00N 37°51' W 122°24'3 6.5
2017-Jul-12 20:30N 37°55' W 122°23'0 1.0
2017-Jul-12 20:00N 37°54' W 122°23'1 2.1
2017-Jul-12 19:31N 37°55' W 122°22'1 1.3
2017-Jul-12 19:00N 37°54' W 122°22'3 6.5
2017-Jul-12 18:31N 37°56' W 122°25'2 3.5
2017-Jul-12 18:00N 37°54' W 122°25'3 6.2
2017-Jul-12 17:30N 37°51' W 122°23'4 7.8
2017-Jul-12 17:00N 37°49' W 122°20'1 1.6
2017-Jul-12 16:30N 37°49' W 122°19'0 0.0
2017-Jul-12 16:00N 37°49' W 122°19'0 0.0
2017-Jul-12 15:30N 37°49' W 122°19'0 0.0
2017-Jul-12 15:01N 37°49' W 122°19'0 0.0
2017-Jul-12 14:00N 37°49' W 122°19'0 0.0
2017-Jul-12 13:30N 37°49' W 122°19'0 0.0
2017-Jul-12 13:00N 37°49' W 122°19'0 0.0
2017-Jul-12 12:31N 37°49' W 122°19'0 0.0
2017-Jul-12 12:00N 37°49' W 122°19'0 0.0
2017-Jul-12 11:31N 37°49' W 122°19'0 0.0
2017-Jul-12 11:00N 37°49' W 122°19'0 0.0
2017-Jul-12 10:30N 37°49' W 122°19'0 0.0
2017-Jul-12 10:00N 37°49' W 122°19'0 0.0
2017-Jul-12 09:30N 37°49' W 122°19'0 0.0
2017-Jul-12 09:01N 37°49' W 122°19'0 0.0
2017-Jul-12 08:30N 37°49' W 122°19'0 0.0
2017-Jul-12 08:01N 37°49' W 122°19'0 0.0
2017-Jul-12 07:30N 37°49' W 122°19'0 0.0
2017-Jul-12 07:01N 37°49' W 122°19'0 0.0
2017-Jul-12 06:31N 37°49' W 122°19'0 0.0
2017-Jul-12 06:01N 37°49' W 122°19'0 0.0
2017-Jul-12 05:30N 37°49' W 122°19'0 0.0
2017-Jul-12 05:00N 37°49' W 122°19'0 0.0
2017-Jul-12 04:30N 37°49' W 122°19'0 0.0
2017-Jul-12 04:00N 37°49' W 122°19'0 0.0
2017-Jul-12 03:30N 37°49' W 122°19'0 0.0
2017-Jul-12 03:00N 37°49' W 122°19'0 0.0
2017-Jul-12 02:30N 37°49' W 122°19'0 0.0
2017-Jul-12 02:01N 37°49' W 122°19'0 0.0
2017-Jul-12 01:30N 37°49' W 122°19'0 0.0
2017-Jul-12 01:00N 37°49' W 122°19'1 1.8
2017-Jul-12 00:31N 37°49' W 122°20'0 0.2
2017-Jul-12 00:01N 37°49' W 122°20'2 3.9
2017-Jul-11 23:30N 37°48' W 122°22'3 5.3
2017-Jul-11 23:00N 37°48' W 122°19'1 1.0
2017-Jul-11 22:30N 37°48' W 122°18'0 0.4
2017-Jul-11 22:01N 37°47' W 122°18'2 4.8
2017-Jul-11 21:31N 37°48' W 122°21'1 1.3
2017-Jul-11 21:01N 37°49' W 122°20'1 2.8
2017-Jul-11 20:30N 37°49' W 122°19'0 0.0
2017-Jul-11 20:01N 37°49' W 122°19'0 0.0
2017-Jul-11 19:30N 37°49' W 122°19'0 0.0
2017-Jul-11 19:00N 37°49' W 122°19'0 0.0
2017-Jul-11 18:30N 37°49' W 122°19'  
Track history (hours):
 
Tides and Currents Weather Stations Pressure Air Temp Water Temp Dewpoint Dewpoint Depression Visibility Wind Speed Wind Dir Waves Ship Positions

Sandra Hugh

Owner: AMNAV Maritime Corporation, Oakland, CA. More information available from US FCC via Universal Licensing System and Coast Guard Vessel Documentation Center.

Last reported at 2017-Jul-21 18:30 UTC. Time now 2017-Jul-21 18:55 UTC.
Position N 37°49' W 122°19'.

Length 24 m; draft 4.9 m.

Type: Tug. MMSI: 367305920.

Date/timePositionNaut miles runAvg speedWind from/ knotsBaromVisibWave heightAir tempDewpointWater temp
2017-Jul-21 18:30N 37°49' W 122°19'0 0.0
2017-Jul-21 18:00N 37°49' W 122°19'0 0.0
2017-Jul-21 17:30N 37°49' W 122°19'0 0.0
2017-Jul-21 17:01N 37°49' W 122°19'0 0.0
2017-Jul-21 16:30N 37°49' W 122°19'0 0.0
2017-Jul-21 16:00N 37°49' W 122°19'0 0.0
2017-Jul-21 15:30N 37°49' W 122°19'0 0.0
2017-Jul-21 15:00N 37°49' W 122°19'0 0.0
2017-Jul-21 14:30N 37°49' W 122°19'0 0.0
2017-Jul-21 14:00N 37°49' W 122°19'0 0.0
2017-Jul-21 13:30N 37°49' W 122°19'0 0.0
2017-Jul-21 13:00N 37°49' W 122°19'0 0.0
2017-Jul-21 12:30N 37°49' W 122°19'0 0.0
2017-Jul-21 12:00N 37°49' W 122°19'0 0.0
2017-Jul-21 11:30N 37°49' W 122°19'0 0.0
2017-Jul-21 11:00N 37°49' W 122°19'0 0.0
2017-Jul-21 10:30N 37°49' W 122°19'0 0.0
2017-Jul-21 10:00N 37°49' W 122°19'0 0.0
2017-Jul-21 09:30N 37°49' W 122°19'0 0.0
2017-Jul-21 09:00N 37°49' W 122°19'0 0.0
2017-Jul-21 08:30N 37°49' W 122°19'0 0.0
2017-Jul-21 08:00N 37°49' W 122°19'0 0.0
2017-Jul-21 07:30N 37°49' W 122°19'0 0.0
2017-Jul-21 07:00N 37°49' W 122°19'0 0.0
2017-Jul-21 06:30N 37°49' W 122°19'0 0.0
2017-Jul-21 06:00N 37°49' W 122°19'0 0.0
2017-Jul-21 05:31N 37°49' W 122°19'2 3.2
2017-Jul-21 05:00N 37°48' W 122°19'2 3.0
2017-Jul-21 04:30N 37°48' W 122°21'1 2.3
2017-Jul-21 04:00N 37°49' W 122°20'1 2.0
2017-Jul-21 03:31N 37°49' W 122°19'611.4
2017-Jul-21 03:00N 37°49' W 122°26'4 7.3
2017-Jul-21 02:30N 37°49' W 122°31'0 0.4
2017-Jul-21 02:01N 37°49' W 122°31'2 4.7
2017-Jul-21 01:30N 37°49' W 122°28'4 7.1
2017-Jul-21 01:01N 37°52' W 122°25'3 5.6
2017-Jul-21 00:30N 37°55' W 122°26'0 0.9
2017-Jul-21 00:00N 37°55' W 122°25'3 6.2
2017-Jul-20 23:30N 37°54' W 122°22'0 0.3
2017-Jul-20 23:01N 37°54' W 122°22'1 2.4
2017-Jul-20 22:31N 37°55' W 122°23'0 0.0
2017-Jul-20 21:47N 37°55' W 122°23'0 0.0
2017-Jul-20 21:30N 37°55' W 122°23'0 0.0
2017-Jul-20 21:01N 37°55' W 122°23'0 0.0
2017-Jul-20 20:30N 37°55' W 122°23'0 0.0
2017-Jul-20 20:01N 37°55' W 122°23'0 0.0
2017-Jul-20 19:29N 37°55' W 122°23'0 0.0
2017-Jul-20 19:01N 37°55' W 122°23'0 0.0
2017-Jul-20 18:30N 37°55' W 122°23'0 0.0
2017-Jul-20 18:01N 37°55' W 122°23'1 2.4
2017-Jul-20 17:30N 37°55' W 122°22'0 0.4
2017-Jul-20 17:01N 37°55' W 122°22'1 2.1
2017-Jul-20 16:30N 37°54' W 122°23'3 5.4
2017-Jul-20 16:00N 37°56' W 122°26'2 5.0
2017-Jul-20 15:30N 37°54' W 122°25'2 5.0
2017-Jul-20 15:01N 37°51' W 122°23'3 2.5
2017-Jul-20 14:00N 37°49' W 122°22'3 5.7
2017-Jul-20 13:31N 37°48' W 122°19'1 2.0
2017-Jul-20 13:00N 37°48' W 122°17'1 2.4
2017-Jul-20 12:30N 37°48' W 122°19'1 3.0
2017-Jul-20 12:01N 37°48' W 122°21'0 1.0
2017-Jul-20 11:30N 37°49' W 122°20'0 0.0
2017-Jul-20 11:00N 37°49' W 122°20'0 0.0
2017-Jul-20 10:30N 37°49' W 122°20'0 0.0
2017-Jul-20 10:00N 37°49' W 122°20'0 0.0
2017-Jul-20 09:31N 37°49' W 122°20'0 0.0
2017-Jul-20 09:00N 37°49' W 122°20'0 0.0
2017-Jul-20 08:30N 37°49' W 122°20'0 0.0
2017-Jul-20 08:01N 37°49' W 122°20'0 0.0
2017-Jul-20 07:30N 37°49' W 122°20'0 0.0
2017-Jul-20 07:00N 37°49' W 122°20'0 0.0
2017-Jul-20 06:31N 37°49' W 122°20'0 0.0
2017-Jul-20 06:00N 37°49' W 122°20'0 0.0
2017-Jul-20 05:30N 37°49' W 122°20'0 0.0
2017-Jul-20 05:00N 37°49' W 122°20'0 0.0
2017-Jul-20 04:31N 37°49' W 122°20'0 0.0
2017-Jul-20 04:00N 37°49' W 122°20'0 0.0
2017-Jul-20 03:31N 37°49' W 122°20'0 0.0
2017-Jul-20 03:01N 37°49' W 122°20'0 0.0
2017-Jul-20 02:30N 37°49' W 122°20'0 0.0
2017-Jul-20 02:01N 37°49' W 122°20'2 3.3
2017-Jul-20 01:31N 37°48' W 122°18'0 0.1
2017-Jul-20 01:01N 37°48' W 122°18'0 0.1
2017-Jul-20 00:30N 37°48' W 122°18'0 0.0
2017-Jul-20 00:01N 37°48' W 122°18'2 3.3
2017-Jul-19 23:31N 37°49' W 122°20'0 0.7
2017-Jul-19 23:00N 37°49' W 122°19'1 1.9
2017-Jul-19 22:30N 37°48' W 122°21'1 2.3
2017-Jul-19 22:01N 37°48' W 122°19'0 1.0
2017-Jul-19 21:31N 37°48' W 122°20'2 3.3
2017-Jul-19 21:01N 37°48' W 122°22'3 5.5
2017-Jul-19 20:30N 37°49' W 122°19'0 0.0
2017-Jul-19 20:00N 37°49' W 122°19'0 0.0
2017-Jul-19 19:30N 37°49' W 122°19'0 0.0
2017-Jul-19 19:01N 37°49' W 122°19'0 0.0
2017-Jul-19 18:30N 37°49' W 122°19'0 0.0
2017-Jul-19 18:00N 37°49' W 122°19'0 0.0
2017-Jul-19 17:30N 37°49' W 122°19'0 0.0
2017-Jul-19 17:01N 37°49' W 122°19'0 0.0
2017-Jul-19 16:30N 37°49' W 122°19'0 0.0
2017-Jul-19 16:01N 37°49' W 122°19'0 0.0
2017-Jul-19 15:31N 37°49' W 122°19'0 0.0
2017-Jul-19 15:00N 37°49' W 122°19'0 0.0
2017-Jul-19 14:31N 37°49' W 122°19'0 0.0
2017-Jul-19 14:01N 37°49' W 122°19'1 1.0
2017-Jul-19 13:30N 37°49' W 122°19'0 0.9
2017-Jul-19 13:00N 37°49' W 122°20'2 3.6
2017-Jul-19 12:30N 37°48' W 122°22'1 2.1
2017-Jul-19 12:00N 37°48' W 122°21'0 0.0
2017-Jul-19 11:31N 37°48' W 122°21'0 0.0
2017-Jul-19 11:00N 37°48' W 122°21'0 0.0
2017-Jul-19 10:31N 37°48' W 122°21'0 0.0
2017-Jul-19 10:01N 37°48' W 122°21'0 0.0
2017-Jul-19 09:30N 37°48' W 122°21'0 0.0
2017-Jul-19 09:01N 37°48' W 122°21'0 0.0
2017-Jul-19 08:30N 37°48' W 122°21'0 0.0
2017-Jul-19 08:00N 37°48' W 122°21'0 0.0
2017-Jul-19 07:31N 37°48' W 122°21'1 2.9
2017-Jul-19 07:01N 37°48' W 122°19'1 1.6
2017-Jul-19 06:31N 37°48' W 122°18'0 0.1
2017-Jul-19 06:01N 37°48' W 122°18'3 6.5
2017-Jul-19 05:31N 37°48' W 122°22'1 2.3
2017-Jul-19 05:01N 37°48' W 122°20'2 3.3
2017-Jul-19 04:30N 37°49' W 122°19'0 0.0
2017-Jul-19 04:00N 37°49' W 122°19'0 0.0
2017-Jul-19 03:30N 37°49' W 122°19'0 0.0
2017-Jul-19 03:00N 37°49' W 122°19'0 0.0
2017-Jul-19 02:30N 37°49' W 122°19'0 0.0
2017-Jul-19 02:00N 37°49' W 122°19'0 0.0
2017-Jul-19 01:30N 37°49' W 122°19'0 0.0
2017-Jul-19 01:00N 37°49' W 122°19'0 0.0
2017-Jul-19 00:30N 37°49' W 122°19'0 0.0
2017-Jul-19 00:01N 37°49' W 122°19'0 0.0
2017-Jul-18 23:30N 37°49' W 122°19'0 0.0
2017-Jul-18 23:01N 37°49' W 122°19'0 0.0
2017-Jul-18 22:30N 37°49' W 122°19'0 0.0
2017-Jul-18 22:01N 37°49' W 122°19'0 0.0
2017-Jul-18 21:31N 37°49' W 122°19'0 0.1
2017-Jul-18 21:00N 37°49' W 122°19'0 0.1
2017-Jul-18 20:31N 37°49' W 122°19'0 0.0
2017-Jul-18 20:01N 37°49' W 122°19'0 0.0
2017-Jul-18 19:30N 37°49' W 122°19'0 0.0
2017-Jul-18 19:01N 37°49' W 122°19'0 0.0
2017-Jul-18 18:31N 37°49' W 122°19'0 0.0
2017-Jul-18 18:01N 37°49' W 122°19'0 0.0
2017-Jul-18 17:30N 37°49' W 122°19'1 1.6
2017-Jul-18 17:01N 37°49' W 122°19'1 2.4
2017-Jul-18 16:31N 37°48' W 122°21'1 1.6
2017-Jul-18 16:00N 37°48' W 122°22'3 5.4
2017-Jul-18 15:31N 37°48' W 122°18'1 1.2
2017-Jul-18 15:00N 37°48' W 122°18'2 2.5
2017-Jul-18 14:01N 37°48' W 122°21'1 1.3
2017-Jul-18 13:30N 37°49' W 122°20'2 3.4
2017-Jul-18 13:01N 37°48' W 122°22'1 2.0
2017-Jul-18 12:30N 37°48' W 122°21'0 0.0
2017-Jul-18 12:01N 37°48' W 122°21'0 0.0
2017-Jul-18 11:30N 37°48' W 122°21'0 0.0
2017-Jul-18 11:01N 37°48' W 122°21'0 0.0
2017-Jul-18 10:30N 37°48' W 122°21'0 0.0
2017-Jul-18 10:00N 37°48' W 122°21'0 0.7
2017-Jul-18 09:31N 37°48' W 122°20'2 3.6
2017-Jul-18 09:01N 37°48' W 122°18'0 0.3
2017-Jul-18 08:31N 37°48' W 122°18'0 0.0
2017-Jul-18 08:00N 37°48' W 122°18'0 0.0
2017-Jul-18 07:30N 37°48' W 122°18'2 3.7
2017-Jul-18 07:00N 37°49' W 122°19'0 0.0
2017-Jul-18 06:30N 37°49' W 122°19'0 0.0
2017-Jul-18 06:00N 37°49' W 122°19'0 0.0
2017-Jul-18 05:30N 37°49' W 122°19'0 0.0
2017-Jul-18 05:00N 37°49' W 122°19'0 0.0
2017-Jul-18 04:30N 37°49' W 122°19'0 0.0
2017-Jul-18 04:00N 37°49' W 122°19'0 0.0
2017-Jul-18 03:30N 37°49' W 122°19'0 0.0
2017-Jul-18 03:00N 37°49' W 122°19'0 0.0
2017-Jul-18 02:30N 37°49' W 122°19'0 0.0
2017-Jul-18 02:00N 37°49' W 122°19'0 0.0
2017-Jul-18 01:30N 37°49' W 122°19'0 0.0
2017-Jul-18 01:00N 37°49' W 122°19'2 3.2
2017-Jul-18 00:30N 37°48' W 122°19'0 0.2
2017-Jul-18 00:00N 37°48' W 122°19'0 0.3
2017-Jul-17 23:30N 37°48' W 122°20'1 1.8
2017-Jul-17 23:00N 37°48' W 122°20'0 0.1
2017-Jul-17 22:30N 37°48' W 122°21'2 3.4
2017-Jul-17 22:01N 37°49' W 122°19'0 0.0
2017-Jul-17 21:30N 37°49' W 122°19'0 0.0
2017-Jul-17 21:00N 37°49' W 122°19'0 0.0
2017-Jul-17 20:30N 37°49' W 122°19'0 0.0
2017-Jul-17 20:00N 37°49' W 122°19'0 0.0
2017-Jul-17 19:30N 37°49' W 122°19'1 1.1
2017-Jul-17 19:00N 37°49' W 122°19'2 3.4
2017-Jul-17 18:30N 37°48' W 122°18'2 4.0
2017-Jul-17 18:00N 37°47' W 122°15'1 1.1
2017-Jul-17 17:31N 37°47' W 122°15'0 0.2
2017-Jul-17 17:00N 37°47' W 122°15'0 0.2
2017-Jul-17 16:30N 37°47' W 122°15'2 3.7
2017-Jul-17 16:00N 37°48' W 122°17'0 0.0
2017-Jul-17 15:30N 37°48' W 122°17'0 0.0
2017-Jul-17 15:00N 37°48' W 122°17'3 5.2
2017-Jul-17 14:30N 37°48' W 122°20'2 3.9
2017-Jul-17 14:00N 37°47' W 122°22'1 2.4
2017-Jul-17 13:30N 37°46' W 122°23'0 0.1
2017-Jul-17 13:00N 37°46' W 122°23'0 0.3
2017-Jul-17 12:30N 37°46' W 122°23'0 1.0
2017-Jul-17 12:01N 37°46' W 122°22'1 2.3
2017-Jul-17 11:30N 37°46' W 122°21'3 5.2
2017-Jul-17 11:00N 37°49' W 122°20'1 2.9
2017-Jul-17 10:30N 37°49' W 122°19'0 0.0
2017-Jul-17 10:00N 37°49' W 122°19'0 0.0
2017-Jul-17 09:30N 37°49' W 122°19'0 0.0
2017-Jul-17 09:00N 37°49' W 122°19'0 0.0
2017-Jul-17 08:30N 37°49' W 122°19'0 0.0
2017-Jul-17 08:00N 37°49' W 122°19'0 0.0
2017-Jul-17 07:30N 37°49' W 122°19'0 0.0
2017-Jul-17 07:00N 37°49' W 122°19'0 0.0
2017-Jul-17 06:30N 37°49' W 122°19'0 0.0
2017-Jul-17 06:00N 37°49' W 122°19'0 0.0
2017-Jul-17 05:30N 37°49' W 122°19'0 0.0
2017-Jul-17 05:00N 37°49' W 122°19'0 0.0
2017-Jul-17 04:30N 37°49' W 122°19'0 0.0
2017-Jul-17 04:00N 37°49' W 122°19'0 0.0
2017-Jul-17 03:30N 37°49' W 122°19'0 0.0
2017-Jul-17 03:00N 37°49' W 122°19'0 0.0
2017-Jul-17 02:30N 37°49' W 122°19'0 0.0
2017-Jul-17 02:00N 37°49' W 122°19'0 0.0
2017-Jul-17 01:30N 37°49' W 122°19'0 0.0
2017-Jul-17 01:00N 37°49' W 122°19'0 0.0
2017-Jul-17 00:30N 37°49' W 122°19'0 0.0
2017-Jul-17 00:00N 37°49' W 122°19'0 0.0
2017-Jul-16 23:30N 37°49' W 122°19'0 0.0
2017-Jul-16 23:00N 37°49' W 122°19'0 0.0
2017-Jul-16 22:30N 37°49' W 122°19'0 0.0
2017-Jul-16 22:00N 37°49' W 122°19'0 0.0
2017-Jul-16 21:30N 37°49' W 122°19'0 0.0
2017-Jul-16 21:01N 37°49' W 122°19'0 0.0
2017-Jul-16 20:30N 37°49' W 122°19'0 0.0
2017-Jul-16 20:00N 37°49' W 122°19'0 0.0
2017-Jul-16 19:30N 37°49' W 122°19'0 0.0
2017-Jul-16 19:00N 37°49' W 122°19'0 0.0
2017-Jul-16 18:30N 37°49' W 122°19'0 0.0
2017-Jul-16 18:00N 37°49' W 122°19'0 0.0
2017-Jul-16 17:30N 37°49' W 122°19'0 0.0
2017-Jul-16 17:00N 37°49' W 122°19'0 0.0
2017-Jul-16 16:30N 37°49' W 122°19'0 0.0
2017-Jul-16 16:00N 37°49' W 122°19'0 0.0
2017-Jul-16 15:30N 37°49' W 122°19'0 0.0
2017-Jul-16 15:00N 37°49' W 122°19'1 1.4
2017-Jul-16 14:30N 37°49' W 122°19'0 0.6
2017-Jul-16 14:00N 37°49' W 122°20'1 1.5
2017-Jul-16 13:31N 37°48' W 122°21'1 2.4
2017-Jul-16 13:01N 37°48' W 122°22'2 3.0
2017-Jul-16 12:30N 37°49' W 122°20'0 0.0
2017-Jul-16 12:00N 37°49' W 122°20'0 0.0
2017-Jul-16 11:30N 37°49' W 122°20'0 0.0
2017-Jul-16 11:00N 37°49' W 122°20'0 0.0
2017-Jul-16 10:30N 37°49' W 122°20'0 0.0
2017-Jul-16 10:00N 37°49' W 122°20'1 1.2
2017-Jul-16 09:30N 37°49' W 122°20'0 0.3
2017-Jul-16 09:00N 37°49' W 122°20'0 0.1
2017-Jul-16 08:30N 37°49' W 122°20'1 1.9
2017-Jul-16 08:00N 37°49' W 122°19'0 0.0
2017-Jul-16 07:30N 37°49' W 122°19'0 0.0
2017-Jul-16 07:00N 37°49' W 122°19'0 0.0
2017-Jul-16 06:30N 37°49' W 122°19'0 0.0
2017-Jul-16 06:00N 37°49' W 122°19'0 0.0
2017-Jul-16 05:30N 37°49' W 122°19'0 0.0
2017-Jul-16 05:00N 37°49' W 122°19'0 0.0
2017-Jul-16 04:30N 37°49' W 122°19'0 0.0
2017-Jul-16 04:00N 37°49' W 122°19'0 0.0
2017-Jul-16 03:30N 37°49' W 122°19'0 0.0
2017-Jul-16 03:00N 37°49' W 122°19'0 0.0
2017-Jul-16 02:30N 37°49' W 122°19'0 0.0
2017-Jul-16 02:00N 37°49' W 122°19'0 0.0
2017-Jul-16 01:30N 37°49' W 122°19'0 0.0
2017-Jul-16 01:00N 37°49' W 122°19'0 0.0
2017-Jul-16 00:30N 37°49' W 122°19'0 0.0
2017-Jul-16 00:00N 37°49' W 122°19'0 0.0
2017-Jul-15 23:30N 37°49' W 122°19'0 0.0
2017-Jul-15 23:00N 37°49' W 122°19'0 0.0
2017-Jul-15 22:30N 37°49' W 122°19'0 0.0
2017-Jul-15 22:00N 37°49' W 122°19'0 0.0
2017-Jul-15 21:30N 37°49' W 122°19'0 0.0
2017-Jul-15 21:00N 37°49' W 122°19'0 0.0
2017-Jul-15 20:30N 37°49' W 122°19'0 0.0
2017-Jul-15 20:00N 37°49' W 122°19'0 0.0
2017-Jul-15 19:30N 37°49' W 122°19'0 0.0
2017-Jul-15 19:00N 37°49' W 122°19'0 0.0
2017-Jul-15 18:30N 37°49' W 122°19'0 0.0
2017-Jul-15 18:00N 37°49' W 122°19'0 0.0
2017-Jul-15 17:30N 37°49' W 122°19'0 0.0
2017-Jul-15 17:00N 37°49' W 122°19'0 0.0
2017-Jul-15 16:30N 37°49' W 122°19'3 6.8
2017-Jul-15 16:01N 37°46' W 122°20'1 1.6
2017-Jul-15 15:30N 37°47' W 122°21'3 6.6
2017-Jul-15 15:00N 37°49' W 122°24'6 6.0
2017-Jul-15 13:59N 37°55' W 122°25'0 0.1
2017-Jul-15 13:29N 37°55' W 122°25'4 7.9
2017-Jul-15 13:00N 37°52' W 122°24'4 8.9
2017-Jul-15 12:30N 37°49' W 122°20'1 1.7
2017-Jul-15 12:00N 37°49' W 122°19'0 0.0
2017-Jul-15 11:30N 37°49' W 122°19'0 0.8
2017-Jul-15 11:00N 37°49' W 122°19'1 3.0
2017-Jul-15 10:31N 37°48' W 122°19'0 0.1
2017-Jul-15 10:01N 37°48' W 122°18'1 1.6
2017-Jul-15 09:30N 37°48' W 122°20'2 3.2
2017-Jul-15 09:01N 37°49' W 122°19'0 0.0
2017-Jul-15 08:31N 37°49' W 122°19'0 0.0
2017-Jul-15 08:00N 37°49' W 122°19'0 0.0
2017-Jul-15 07:30N 37°49' W 122°19'0 0.0
2017-Jul-15 07:00N 37°49' W 122°19'0 0.0
2017-Jul-15 06:31N 37°49' W 122°19'0 0.0
2017-Jul-15 06:00N 37°49' W 122°19'0 0.0
2017-Jul-15 05:30N 37°49' W 122°19'0 0.0
2017-Jul-15 05:00N 37°49' W 122°19'0 0.0
2017-Jul-15 04:31N 37°49' W 122°19'0 0.0
2017-Jul-15 04:01N 37°49' W 122°19'0 0.0
2017-Jul-15 03:31N 37°49' W 122°19'0 0.0
2017-Jul-15 03:00N 37°49' W 122°19'0 0.0
2017-Jul-15 02:31N 37°49' W 122°19'0 0.0
2017-Jul-15 02:00N 37°49' W 122°19'0 0.0
2017-Jul-15 01:31N 37°49' W 122°19'0 0.0
2017-Jul-15 01:00N 37°49' W 122°19'0 0.0
2017-Jul-15 00:30N 37°49' W 122°19'0 0.0
2017-Jul-15 00:00N 37°49' W 122°19'0 0.0
2017-Jul-14 23:30N 37°49' W 122°19'1 2.1
2017-Jul-14 23:00N 37°49' W 122°20'2 4.0
2017-Jul-14 22:30N 37°48' W 122°22'1 2.7
2017-Jul-14 22:00N 37°48' W 122°21'1 1.4
2017-Jul-14 21:31N 37°49' W 122°20'0 0.2
2017-Jul-14 21:00N 37°49' W 122°20'1 2.1
2017-Jul-14 20:30N 37°49' W 122°19'0 0.0
2017-Jul-14 20:00N 37°49' W 122°19'0 0.0
2017-Jul-14 19:30N 37°49' W 122°19'2 3.6
2017-Jul-14 19:01N 37°48' W 122°21'2 4.4
2017-Jul-14 18:30N 37°48' W 122°18'0 0.1
2017-Jul-14 18:01N 37°48' W 122°18'1 2.8
2017-Jul-14 17:31N 37°48' W 122°20'2 3.2
2017-Jul-14 17:01N 37°49' W 122°19'0 0.0
2017-Jul-14 16:31N 37°49' W 122°19'0 0.0
2017-Jul-14 16:01N 37°49' W 122°19'0 0.0
2017-Jul-14 15:31N 37°49' W 122°19'0 0.0
2017-Jul-14 15:00N 37°49' W 122°19'0 0.0
2017-Jul-14 14:30N 37°49' W 122°19'0 0.0
2017-Jul-14 14:00N 37°49' W 122°19'0 0.0
2017-Jul-14 13:31N 37°49' W 122°19'0 0.0
2017-Jul-14 13:00N 37°49' W 122°19'0 0.0
2017-Jul-14 12:30N 37°49' W 122°19'0 0.0
2017-Jul-14 12:00N 37°49' W 122°19'0 0.0
2017-Jul-14 11:30N 37°49' W 122°19'0 0.0
2017-Jul-14 11:00N 37°49' W 122°19'0 0.0
2017-Jul-14 10:30N 37°49' W 122°19'0 0.0
2017-Jul-14 10:00N 37°49' W 122°19'0 0.0
2017-Jul-14 09:31N 37°49' W 122°19'2 3.2
2017-Jul-14 09:00N 37°48' W 122°20'0 0.2
2017-Jul-14 08:30N 37°49' W 122°20'1 3.0
2017-Jul-14 08:01N 37°49' W 122°19'0 0.0
2017-Jul-14 07:30N 37°49' W 122°19'0 0.0
2017-Jul-14 07:00N 37°49' W 122°19'0 0.0
2017-Jul-14 06:31N 37°49' W 122°19'0 0.0
2017-Jul-14 06:00N 37°49' W 122°19'0 0.0
2017-Jul-14 05:30N 37°49' W 122°19'0 0.0
2017-Jul-14 05:00N 37°49' W 122°19'0 0.0
2017-Jul-14 04:30N 37°49' W 122°19'0 0.0
2017-Jul-14 04:00N 37°49' W 122°19'0 0.0
2017-Jul-14 03:30N 37°49' W 122°19'0 0.0
2017-Jul-14 03:00N 37°49' W 122°19'0 0.0
2017-Jul-14 02:31N 37°49' W 122°19'0 0.0
2017-Jul-14 02:00N 37°49' W 122°19'0 0.0
2017-Jul-14 01:30N 37°49' W 122°19'0 0.0
2017-Jul-14 01:00N 37°49' W 122°19'0 0.0
2017-Jul-14 00:30N 37°49' W 122°19'0 0.0
2017-Jul-14 00:00N 37°49' W 122°19'0 0.0
2017-Jul-13 23:31N 37°49' W 122°19'2 3.2
2017-Jul-13 23:01N 37°48' W 122°20'1 1.5
2017-Jul-13 22:30N 37°48' W 122°19'0 0.0
2017-Jul-13 22:00N 37°48' W 122°19'1 1.2
2017-Jul-13 21:30N 37°48' W 122°19'2 3.1
2017-Jul-13 21:00N 37°49' W 122°19'0 0.0
2017-Jul-13 20:31N 37°49' W 122°19'0 0.0
2017-Jul-13 20:00N 37°49' W 122°19'0 0.0
2017-Jul-13 19:30N 37°49' W 122°19'0 0.0
2017-Jul-13 19:00N 37°49' W 122°19'0 0.0
2017-Jul-13 18:30N 37°49' W 122°19'0 0.0
2017-Jul-13 18:00N 37°49' W 122°19'0 0.0
2017-Jul-13 17:30N 37°49' W 122°19'0 0.0
2017-Jul-13 17:01N 37°49' W 122°19'0 0.7
2017-Jul-13 16:30N 37°49' W 122°19'1 1.5
2017-Jul-13 16:01N 37°49' W 122°20'2 4.2
2017-Jul-13 15:30N 37°48' W 122°23'3 5.5
2017-Jul-13 15:00N 37°49' W 122°19'0 1.0
2017-Jul-13 14:31N 37°49' W 122°19'0 0.0
2017-Jul-13 14:01N 37°49' W 122°19'0 0.0
2017-Jul-13 13:30N 37°49' W 122°19'0 0.0
2017-Jul-13 13:00N 37°49' W 122°19'0 0.0
2017-Jul-13 12:30N 37°49' W 122°19'0 0.0
2017-Jul-13 12:01N 37°49' W 122°19'0 0.0
2017-Jul-13 11:30N 37°49' W 122°19'0 0.0
2017-Jul-13 11:00N 37°49' W 122°19'0 0.0
2017-Jul-13 10:30N 37°49' W 122°19'0 0.0
2017-Jul-13 10:01N 37°49' W 122°19'0 0.0
2017-Jul-13 09:31N 37°49' W 122°19'0 0.0
2017-Jul-13 09:00N 37°49' W 122°19'0 0.0
2017-Jul-13 08:31N 37°49' W 122°19'0 0.0
2017-Jul-13 08:00N 37°49' W 122°19'0 0.0
2017-Jul-13 07:30N 37°49' W 122°19'0 0.0
2017-Jul-13 07:00N 37°49' W 122°19'0 0.0
2017-Jul-13 06:31N 37°49' W 122°19'0 0.0
2017-Jul-13 06:01N 37°49' W 122°19'0 0.0
2017-Jul-13 05:31N 37°49' W 122°19'0 0.0
2017-Jul-13 05:00N 37°49' W 122°19'0 0.0
2017-Jul-13 04:30N 37°49' W 122°19'0 0.0
2017-Jul-13 04:00N 37°49' W 122°19'0 0.0
2017-Jul-13 03:30N 37°49' W 122°19'0 0.0
2017-Jul-13 03:00N 37°49' W 122°19'0 0.0
2017-Jul-13 02:31N 37°49' W 122°19'2 3.3
2017-Jul-13 02:01N 37°48' W 122°20'1 2.5
2017-Jul-13 01:30N 37°48' W 122°19'1 2.6
2017-Jul-13 01:01N 37°48' W 122°17'3 5.3
2017-Jul-13 00:31N 37°48' W 122°21'2 4.6
2017-Jul-13 00:00N 37°46' W 122°22'1 2.3
2017-Jul-12 23:31N 37°47' W 122°22'1 2.3
2017-Jul-12 23:00N 37°48' W 122°23'3 5.7
2017-Jul-12 22:30N 37°48' W 122°20'0 0.0
2017-Jul-12 22:00N 37°48' W 122°20'3 5.2
2017-Jul-12 21:31N 37°49' W 122°23'3 5.7
2017-Jul-12 21:00N 37°51' W 122°24'3 6.5
2017-Jul-12 20:30N 37°55' W 122°23'0 1.0
2017-Jul-12 20:00N 37°54' W 122°23'1 2.1
2017-Jul-12 19:31N 37°55' W 122°22'1 1.3
2017-Jul-12 19:00N 37°54' W 122°22'3 6.5
2017-Jul-12 18:31N 37°56' W 122°25'2 3.5
2017-Jul-12 18:00N 37°54' W 122°25'3 6.2
2017-Jul-12 17:30N 37°51' W 122°23'4 7.8
2017-Jul-12 17:00N 37°49' W 122°20'1 1.6
2017-Jul-12 16:30N 37°49' W 122°19'0 0.0
2017-Jul-12 16:00N 37°49' W 122°19'0 0.0
2017-Jul-12 15:30N 37°49' W 122°19'0 0.0
2017-Jul-12 15:01N 37°49' W 122°19'0 0.0
2017-Jul-12 14:00N 37°49' W 122°19'0 0.0
2017-Jul-12 13:30N 37°49' W 122°19'0 0.0
2017-Jul-12 13:00N 37°49' W 122°19'0 0.0
2017-Jul-12 12:31N 37°49' W 122°19'0 0.0
2017-Jul-12 12:00N 37°49' W 122°19'0 0.0
2017-Jul-12 11:31N 37°49' W 122°19'0 0.0
2017-Jul-12 11:00N 37°49' W 122°19'0 0.0
2017-Jul-12 10:30N 37°49' W 122°19'0 0.0
2017-Jul-12 10:00N 37°49' W 122°19'0 0.0
2017-Jul-12 09:30N 37°49' W 122°19'0 0.0
2017-Jul-12 09:01N 37°49' W 122°19'0 0.0
2017-Jul-12 08:30N 37°49' W 122°19'0 0.0
2017-Jul-12 08:01N 37°49' W 122°19'0 0.0
2017-Jul-12 07:30N 37°49' W 122°19'0 0.0
2017-Jul-12 07:01N 37°49' W 122°19'0 0.0
2017-Jul-12 06:31N 37°49' W 122°19'0 0.0
2017-Jul-12 06:01N 37°49' W 122°19'0 0.0
2017-Jul-12 05:30N 37°49' W 122°19'0 0.0
2017-Jul-12 05:00N 37°49' W 122°19'0 0.0
2017-Jul-12 04:30N 37°49' W 122°19'0 0.0
2017-Jul-12 04:00N 37°49' W 122°19'0 0.0
2017-Jul-12 03:30N 37°49' W 122°19'0 0.0
2017-Jul-12 03:00N 37°49' W 122°19'0 0.0
2017-Jul-12 02:30N 37°49' W 122°19'0 0.0
2017-Jul-12 02:01N 37°49' W 122°19'0 0.0
2017-Jul-12 01:30N 37°49' W 122°19'0 0.0
2017-Jul-12 01:00N 37°49' W 122°19'1 1.8
2017-Jul-12 00:31N 37°49' W 122°20'0 0.2
2017-Jul-12 00:01N 37°49' W 122°20'2 3.9
2017-Jul-11 23:30N 37°48' W 122°22'3 5.3
2017-Jul-11 23:00N 37°48' W 122°19'1 1.0
2017-Jul-11 22:30N 37°48' W 122°18'0 0.4
2017-Jul-11 22:01N 37°47' W 122°18'2 4.8
2017-Jul-11 21:31N 37°48' W 122°21'1 1.3
2017-Jul-11 21:01N 37°49' W 122°20'1 2.8
2017-Jul-11 20:30N 37°49' W 122°19'0 0.0
2017-Jul-11 20:01N 37°49' W 122°19'0 0.0
2017-Jul-11 19:30N 37°49' W 122°19'0 0.0
2017-Jul-11 19:00N 37°49' W 122°19'0 0.0
2017-Jul-11 18:30N 37°49' W 122°19'  

Dump ship's entire track history